createdAt,value
2018-07-01T00:01:11.880Z,0.70
2018-07-01T00:03:41.027Z,0.87
2018-07-01T00:06:10.081Z,1.00
2018-07-01T00:08:39.170Z,0.80
2018-07-01T00:11:08.210Z,0.80
2018-07-01T00:13:37.256Z,0.70
2018-07-01T00:16:06.309Z,0.70
2018-07-01T00:18:35.392Z,0.90
2018-07-01T00:21:04.443Z,1.07
2018-07-01T00:23:33.512Z,0.87
2018-07-01T00:26:02.664Z,0.90
2018-07-01T00:28:31.943Z,1.00
2018-07-01T00:31:01.014Z,0.80
2018-07-01T00:33:30.068Z,0.80
2018-07-01T00:35:59.120Z,1.00
2018-07-01T00:38:28.195Z,0.70
2018-07-01T00:40:57.296Z,0.90
2018-07-01T00:43:26.356Z,0.63
2018-07-01T00:45:55.411Z,0.97
2018-07-01T00:48:24.230Z,0.90
2018-07-01T00:50:53.165Z,0.80
2018-07-01T00:53:22.241Z,0.90
2018-07-01T00:55:51.289Z,0.80
2018-07-01T00:58:20.444Z,0.87
2018-07-01T01:00:49.540Z,1.00
2018-07-01T01:03:18.570Z,1.00
2018-07-01T01:05:47.637Z,0.90
2018-07-01T01:08:16.705Z,1.13
2018-07-01T01:10:45.747Z,0.80
2018-07-01T01:13:14.792Z,1.00
2018-07-01T01:15:43.849Z,0.80
2018-07-01T01:18:12.915Z,0.90
2018-07-01T01:20:42.032Z,0.80
2018-07-01T01:23:11.176Z,0.97
2018-07-01T01:25:40.258Z,0.77
2018-07-01T01:28:09.332Z,0.90
2018-07-01T01:30:38.378Z,1.00
2018-07-01T01:33:07.467Z,1.10
2018-07-01T01:35:36.608Z,0.80
2018-07-01T01:38:05.747Z,0.83
2018-07-01T01:40:38.712Z,0.93
2018-07-01T01:43:10.880Z,0.80
2018-07-01T01:45:47.879Z,1.00
2018-07-01T01:48:23.510Z,0.90
2018-07-01T01:50:57.332Z,0.80
2018-07-01T01:53:30.511Z,0.90
2018-07-01T01:56:05.751Z,0.90
2018-07-01T01:58:43.467Z,0.80
2018-07-01T02:01:16.412Z,1.00
2018-07-01T02:03:50.159Z,0.97
2018-07-01T02:06:29.251Z,0.70
2018-07-01T02:09:03.920Z,1.00
2018-07-01T02:11:36.080Z,1.03
2018-07-01T02:14:08.432Z,1.03
2018-07-01T02:16:41.124Z,1.00
2018-07-01T02:19:10.210Z,0.90
2018-07-01T02:21:39.319Z,0.90
2018-07-01T02:24:13.524Z,0.90
2018-07-01T02:26:42.600Z,0.83
2018-07-01T02:29:11.684Z,0.93
2018-07-01T02:31:40.736Z,0.77
2018-07-01T02:34:09.823Z,0.90
2018-07-01T02:36:38.884Z,0.80
2018-07-01T02:39:08.421Z,0.87
2018-07-01T02:41:37.588Z,0.93
2018-07-01T02:44:06.712Z,1.10
2018-07-01T02:46:35.776Z,1.10
2018-07-01T02:49:04.919Z,0.93
2018-07-01T02:51:33.972Z,0.80
2018-07-01T02:54:02.764Z,1.17
2018-07-01T02:56:31.723Z,0.90
2018-07-01T02:59:00.775Z,0.90
2018-07-01T03:01:29.918Z,0.90
2018-07-01T03:03:58.960Z,0.80
2018-07-01T03:06:28.012Z,0.83
2018-07-01T03:08:57.068Z,0.90
2018-07-01T03:11:26.181Z,0.70
2018-07-01T03:13:55.314Z,0.80
2018-07-01T03:16:24.124Z,0.90
2018-07-01T03:18:53.052Z,0.80
2018-07-01T03:21:22.127Z,0.80
2018-07-01T03:23:51.219Z,0.80
2018-07-01T03:26:20.256Z,1.27
2018-07-01T03:28:49.334Z,0.90
2018-07-01T03:31:18.395Z,0.87
2018-07-01T03:33:47.455Z,0.80
2018-07-01T03:36:16.495Z,1.10
2018-07-01T03:38:45.556Z,0.87
2018-07-01T03:41:14.616Z,0.73
2018-07-01T03:43:43.781Z,1.00
2018-07-01T03:46:12.925Z,0.87
2018-07-01T03:48:41.956Z,0.80
2018-07-01T03:51:11.023Z,1.03
2018-07-01T03:53:40.101Z,0.93
2018-07-01T03:56:09.155Z,0.80
2018-07-01T03:58:38.188Z,1.03
2018-07-01T04:01:07.248Z,0.70
2018-07-01T04:03:36.393Z,0.80
2018-07-01T04:06:05.845Z,0.87
2018-07-01T04:08:34.903Z,1.00
2018-07-01T04:11:03.967Z,0.73
2018-07-01T04:13:33.032Z,0.90
2018-07-01T04:16:02.098Z,1.00
2018-07-01T04:18:31.158Z,0.83
2018-07-01T04:21:00.199Z,0.90
2018-07-01T04:23:29.248Z,0.63
2018-07-01T04:25:58.303Z,0.77
2018-07-01T04:28:27.362Z,0.80
2018-07-01T04:30:56.501Z,0.87
2018-07-01T04:33:25.497Z,0.87
2018-07-01T04:35:54.547Z,0.80
2018-07-01T04:38:23.556Z,0.90
2018-07-01T04:40:52.513Z,0.80
2018-07-01T04:43:21.568Z,0.90
2018-07-01T04:45:50.715Z,0.90
2018-07-01T04:48:19.756Z,0.80
2018-07-01T04:50:48.807Z,1.00
2018-07-01T04:53:17.598Z,1.00
2018-07-01T04:55:46.528Z,0.90
2018-07-01T04:58:15.592Z,0.80
2018-07-01T05:00:44.642Z,0.70
2018-07-01T05:03:13.720Z,0.70
2018-07-01T05:05:42.775Z,0.90
2018-07-01T05:08:11.818Z,1.00
2018-07-01T05:10:40.618Z,0.87
2018-07-01T05:13:09.566Z,1.00
2018-07-01T05:15:38.612Z,0.93
2018-07-01T05:18:07.672Z,0.90
2018-07-01T05:20:36.831Z,0.73
2018-07-01T05:23:06.063Z,0.90
2018-07-01T05:25:35.142Z,0.80
2018-07-01T05:28:04.252Z,0.70
2018-07-01T05:30:33.312Z,1.00
2018-07-01T05:33:02.373Z,0.80
2018-07-01T05:35:31.431Z,0.90
2018-07-01T05:38:00.497Z,0.80
2018-07-01T05:40:29.539Z,0.97
2018-07-01T05:42:58.655Z,0.80
2018-07-01T05:45:27.708Z,0.60
2018-07-01T05:47:56.864Z,0.87
2018-07-01T05:50:25.975Z,0.80
2018-07-01T05:52:55.096Z,0.83
2018-07-01T05:55:24.138Z,0.80
2018-07-01T05:57:53.200Z,1.00
2018-07-01T06:00:22.272Z,0.80
2018-07-01T06:02:51.375Z,0.80
2018-07-01T06:05:20.444Z,1.10
2018-07-01T07:05:16.765Z,0.90
2018-07-01T07:07:45.886Z,0.63
2018-07-01T07:10:14.928Z,0.80
2018-07-01T07:12:43.998Z,0.90
2018-07-01T07:15:13.070Z,0.80
2018-07-01T07:17:42.336Z,0.90
2018-07-01T07:20:11.391Z,0.90
2018-07-01T07:22:40.553Z,1.07
2018-07-01T07:25:09.679Z,0.60
2018-07-01T07:27:38.776Z,0.70
2018-07-01T07:30:07.840Z,0.90
2018-07-01T07:32:36.880Z,0.90
2018-07-01T07:35:06.268Z,0.80
2018-07-01T07:37:35.419Z,0.90
2018-07-01T07:40:04.509Z,1.00
2018-07-01T07:42:33.607Z,0.80
2018-07-01T07:45:02.750Z,0.83
2018-07-01T07:47:31.763Z,0.90
2018-07-01T07:50:00.868Z,1.13
2018-07-01T07:52:29.985Z,0.80
2018-07-01T07:54:59.083Z,0.97
2018-07-01T07:57:28.131Z,0.90
2018-07-01T07:59:57.296Z,0.70
2018-07-01T08:02:26.347Z,0.80
2018-07-01T08:04:55.453Z,0.67
2018-07-01T08:07:24.533Z,0.80
2018-07-01T08:09:53.588Z,0.60
2018-07-01T08:12:22.660Z,0.80
2018-07-01T08:14:51.848Z,0.97
2018-07-01T08:17:20.904Z,0.70
2018-07-01T08:19:49.959Z,0.80
2018-07-01T08:22:19.044Z,0.90
2018-07-01T08:24:48.119Z,1.00
2018-07-01T08:27:17.176Z,0.80
2018-07-01T08:29:46.555Z,1.17
2018-07-01T08:32:15.626Z,0.80
2018-07-01T08:34:44.699Z,0.90
2018-07-01T08:37:13.963Z,1.00
2018-07-01T08:39:43.014Z,1.00
2018-07-01T08:42:22.127Z,0.90
2018-07-01T08:44:51.970Z,1.07
2018-07-01T08:47:21.092Z,1.47
2018-07-01T08:49:50.292Z,1.00
2018-07-01T08:52:19.437Z,1.00
2018-07-01T08:54:48.515Z,1.07
2018-07-01T08:57:18.635Z,0.90
2018-07-01T08:59:48.151Z,0.90
2018-07-01T09:02:17.956Z,1.00
2018-07-01T09:04:47.059Z,0.90
2018-07-01T09:07:16.900Z,1.20
2018-07-01T09:09:46.240Z,1.00
2018-07-01T09:12:15.328Z,0.90
2018-07-01T09:14:44.471Z,0.97
2018-07-01T09:17:13.703Z,0.93
2018-07-01T09:19:42.717Z,1.00
2018-07-01T09:22:11.800Z,1.20
2018-07-01T09:24:40.911Z,1.00
2018-07-01T09:27:09.988Z,0.90
2018-07-01T09:29:44.443Z,1.30
2018-07-01T09:32:13.957Z,0.90
2018-07-01T09:34:43.255Z,0.83
2018-07-01T09:37:12.329Z,1.20
2018-07-01T09:39:41.425Z,1.60
2018-07-01T09:42:10.507Z,1.10
2018-07-01T09:44:39.588Z,0.87
2018-07-01T09:47:08.648Z,1.20
2018-07-01T09:49:38.748Z,1.03
2018-07-01T09:52:07.810Z,1.20
2018-07-01T09:54:36.933Z,1.00
2018-07-01T09:57:06.040Z,1.23
2018-07-01T09:59:35.136Z,1.07
2018-07-01T10:02:04.232Z,1.00
2018-07-01T10:04:33.321Z,0.90
2018-07-01T10:07:02.384Z,0.83
2018-07-01T10:09:31.466Z,1.10
2018-07-01T10:12:00.609Z,1.20
2018-07-01T10:14:29.632Z,0.87
2018-07-01T10:16:58.741Z,1.23
2018-07-01T10:19:27.822Z,0.93
2018-07-01T10:21:56.924Z,1.47
2018-07-01T10:24:25.996Z,0.80
2018-07-01T10:26:55.166Z,0.97
2018-07-01T10:29:24.360Z,0.87
2018-07-01T10:31:53.168Z,1.23
2018-07-01T10:34:22.141Z,0.80
2018-07-01T10:36:51.295Z,1.13
2018-07-01T10:39:20.466Z,1.00
2018-07-01T10:41:49.535Z,0.90
2018-07-01T10:44:18.584Z,0.77
2018-07-01T10:46:47.687Z,0.90
2018-07-01T10:49:16.755Z,1.50
2018-07-01T10:51:45.898Z,0.90
2018-07-01T10:54:14.863Z,0.93
2018-07-01T10:56:44.019Z,1.03
2018-07-01T10:59:13.087Z,1.30
2018-07-01T11:01:42.180Z,1.20
2018-07-01T11:04:11.243Z,1.03
2018-07-01T11:06:40.387Z,1.00
2018-07-01T11:09:10.622Z,1.30
2018-07-01T11:11:39.720Z,1.83
2018-07-01T11:14:08.752Z,1.10
2018-07-01T11:16:37.823Z,1.33
2018-07-01T11:19:06.902Z,0.90
2018-07-01T11:21:35.971Z,1.47
2018-07-01T11:24:05.264Z,1.33
2018-07-01T11:26:34.381Z,1.20
2018-07-01T11:29:05.077Z,1.00
2018-07-01T11:31:34.200Z,1.27
2018-07-01T11:34:03.263Z,1.03
2018-07-01T11:36:32.358Z,1.30
2018-07-01T11:39:01.428Z,0.90
2018-07-01T11:41:30.484Z,1.10
2018-07-01T11:43:59.568Z,1.00
2018-07-01T11:46:28.623Z,1.17
2018-07-01T11:48:57.719Z,1.10
2018-07-01T11:51:26.816Z,1.10
2018-07-01T11:53:55.876Z,1.17
2018-07-01T11:56:24.936Z,1.10
2018-07-01T11:58:54.011Z,1.10
2018-07-01T12:01:23.084Z,1.20
2018-07-01T12:03:52.136Z,1.30
2018-07-01T12:06:21.222Z,1.07
2018-07-01T12:08:50.290Z,1.43
2018-07-01T12:11:19.435Z,1.20
2018-07-01T12:13:48.508Z,1.27
2018-07-01T12:16:17.601Z,1.67
2018-07-01T12:18:46.664Z,1.60
2018-07-01T12:21:15.769Z,1.20
2018-07-01T12:23:44.831Z,1.17
2018-07-01T12:26:13.975Z,1.40
2018-07-01T12:28:43.103Z,1.23
2018-07-01T12:31:11.851Z,1.37
2018-07-01T12:33:40.812Z,1.27
2018-07-01T12:36:09.867Z,1.40
2018-07-01T12:38:38.930Z,1.10
2018-07-01T12:41:08.028Z,1.07
2018-07-01T12:43:37.211Z,1.00
2018-07-01T12:46:06.280Z,0.83
2018-07-01T12:48:35.260Z,1.07
2018-07-01T12:51:04.667Z,1.10
2018-07-01T12:53:33.783Z,1.20
2018-07-01T12:56:02.891Z,1.10
2018-07-01T12:58:32.015Z,1.00
2018-07-01T13:01:01.340Z,0.83
2018-07-01T13:03:30.429Z,1.07
2018-07-01T13:05:59.491Z,1.00
2018-07-01T13:08:28.577Z,0.83
2018-07-01T13:10:57.607Z,1.20
2018-07-01T13:13:26.692Z,1.10
2018-07-01T13:15:55.801Z,1.00
2018-07-01T13:18:24.957Z,1.10
2018-07-01T13:20:54.000Z,1.13
2018-07-01T13:23:23.077Z,1.43
2018-07-01T13:25:52.127Z,1.10
2018-07-01T13:28:21.199Z,0.90
2018-07-01T13:30:50.004Z,1.00
2018-07-01T13:33:18.939Z,1.10
2018-07-01T13:35:48.049Z,0.90
2018-07-01T13:38:17.207Z,1.10
2018-07-01T13:40:46.389Z,0.70
2018-07-01T13:43:15.459Z,1.27
2018-07-01T13:45:44.651Z,0.97
2018-07-01T13:52:25.707Z,0.70
2018-07-01T13:54:55.041Z,0.90
2018-07-01T13:57:24.169Z,0.63
2018-07-01T13:59:53.292Z,0.60
2018-07-01T14:02:22.430Z,0.63
2018-07-01T14:04:51.520Z,0.50
2018-07-01T14:07:20.605Z,0.50
2018-07-01T14:24:10.740Z,0.50
2018-07-01T14:26:39.847Z,0.57
2018-07-01T14:29:08.931Z,0.50
2018-07-01T14:31:37.999Z,0.40
2018-07-01T14:34:07.117Z,0.50
2018-07-01T14:36:36.191Z,0.80
2018-07-01T14:39:09.660Z,0.43
2018-07-01T14:41:38.761Z,0.70
2018-07-01T14:44:07.918Z,0.43
2018-07-01T14:46:37.057Z,0.50
2018-07-01T14:49:06.247Z,0.70
2018-07-01T14:51:35.478Z,1.10
2018-07-01T14:54:04.812Z,0.80
2018-07-01T14:56:33.965Z,0.50
2018-07-01T14:59:03.071Z,0.30
2018-07-01T15:01:32.173Z,0.60
2018-07-01T15:04:01.313Z,0.43
2018-07-01T15:06:30.421Z,0.50
2018-07-01T15:08:59.263Z,0.23
2018-07-01T15:11:28.328Z,0.47
2018-07-01T15:13:57.419Z,0.63
2018-07-01T15:16:26.499Z,0.50
2018-07-01T15:18:55.627Z,0.80
2018-07-01T15:21:24.723Z,0.70
2018-07-01T15:23:53.600Z,0.60
2018-07-01T15:26:22.614Z,1.00
2018-07-01T15:28:51.779Z,0.80
2018-07-01T15:31:20.618Z,0.83
2018-07-01T15:33:49.595Z,1.13
2018-07-01T15:36:18.689Z,1.00
2018-07-01T16:03:55.289Z,1.10
2018-07-01T16:06:24.909Z,0.97
2018-07-01T16:08:53.992Z,0.97
2018-07-01T16:11:23.200Z,1.00
2018-07-01T16:13:52.556Z,1.00
2018-07-01T16:16:21.654Z,1.00
2018-07-01T16:18:50.733Z,1.10
2018-07-01T16:21:19.784Z,1.37
2018-07-01T16:23:48.980Z,1.97
2018-07-01T16:26:23.516Z,1.53
2018-07-01T16:28:58.032Z,1.90
2018-07-01T16:31:27.715Z,1.40
2018-07-01T16:33:56.642Z,1.30
2018-07-01T16:36:25.923Z,1.40
2018-07-01T16:38:54.985Z,1.33
2018-07-01T16:41:24.200Z,1.40
2018-07-01T16:43:53.523Z,1.40
2018-07-01T16:46:22.577Z,1.70
2018-07-01T16:48:51.623Z,1.30
2018-07-01T16:51:20.680Z,1.20
2018-07-01T16:53:49.720Z,1.50
2018-07-01T16:56:18.768Z,1.20
2018-07-01T16:58:47.823Z,1.00
2018-07-01T17:01:16.896Z,1.07
2018-07-01T17:03:45.967Z,1.13
2018-07-01T17:06:15.660Z,1.10
2018-07-01T17:08:44.730Z,1.10
2018-07-01T17:11:13.939Z,1.10
2018-07-01T17:13:43.043Z,1.30
2018-07-01T17:16:12.080Z,1.07
2018-07-01T17:18:41.194Z,0.80
2018-07-01T17:21:10.467Z,1.00
2018-07-01T17:23:39.549Z,1.00
2018-07-01T17:26:08.608Z,0.90
2018-07-01T17:28:37.667Z,0.77
2018-07-01T17:31:12.292Z,0.83
2018-07-01T17:33:41.364Z,0.87
2018-07-01T17:36:10.457Z,0.70
2018-07-01T17:38:39.507Z,1.37
2018-07-01T17:41:08.556Z,0.97
2018-07-01T17:43:37.618Z,1.00
2018-07-01T17:46:06.687Z,1.00
2018-07-01T17:50:05.009Z,0.93
2018-07-01T17:52:34.074Z,0.90
2018-07-01T17:55:03.139Z,1.00
2018-07-01T17:57:32.237Z,1.70
2018-07-01T18:00:01.307Z,1.00
2018-07-01T18:02:30.385Z,1.20
2018-07-01T18:04:59.319Z,1.20
2018-07-01T18:07:28.296Z,1.20
2018-07-01T18:56:57.272Z,1.37
2018-07-01T18:59:26.391Z,1.10
2018-07-01T19:01:55.756Z,1.20
2018-07-01T19:04:24.832Z,1.10
2018-07-01T19:06:54.137Z,0.90
2018-07-01T19:09:23.269Z,1.30
2018-07-01T19:11:52.290Z,1.60
2018-07-01T19:14:21.264Z,1.10
2018-07-01T19:16:50.081Z,1.03
2018-07-01T19:19:19.075Z,0.80
2018-07-01T19:21:48.323Z,1.13
2018-07-01T19:24:17.206Z,0.83
2018-07-01T19:26:46.927Z,0.97
2018-07-01T19:29:16.019Z,0.73
2018-07-01T19:31:45.075Z,1.00
2018-07-01T19:34:14.668Z,0.80
2018-07-01T19:36:43.773Z,1.20
2018-07-01T19:39:13.088Z,0.93
2018-07-01T19:41:42.224Z,0.93
2018-07-01T19:44:11.285Z,0.83
2018-07-01T19:46:40.404Z,0.77
2018-07-01T19:49:09.494Z,1.00
2018-07-01T19:51:38.599Z,0.70
2018-07-01T19:54:07.395Z,0.80
2018-07-01T19:56:36.466Z,1.00
2018-07-01T19:59:05.585Z,0.90
2018-07-01T20:01:34.693Z,0.80
2018-07-01T20:04:04.168Z,1.00
2018-07-01T20:06:33.329Z,0.80
2018-07-01T20:09:02.365Z,1.07
2018-07-01T20:11:31.439Z,0.80
2018-07-01T20:14:00.524Z,1.07
2018-07-01T20:16:29.635Z,1.10
2018-07-01T20:18:58.720Z,0.90
2018-07-01T20:21:27.880Z,0.97
2018-07-01T20:23:56.959Z,0.80
2018-07-01T20:26:26.056Z,1.00
2018-07-01T20:28:55.127Z,1.40
2018-07-01T20:31:24.174Z,1.30
2018-07-01T20:33:53.259Z,1.00
2018-07-01T20:36:22.372Z,0.90
2018-07-01T20:38:51.441Z,1.00
2018-07-01T20:41:20.515Z,1.27
2018-07-01T20:43:49.588Z,0.90
2018-07-01T20:46:18.644Z,1.10
2018-07-01T20:48:47.729Z,0.90
2018-07-01T20:51:16.842Z,1.13
2018-07-01T20:53:45.956Z,1.33
2018-07-01T20:56:15.075Z,1.57
2018-07-01T20:58:44.158Z,1.87
2018-07-01T21:01:13.235Z,2.03
2018-07-01T21:03:42.335Z,2.10
2018-07-01T21:06:11.411Z,2.40
2018-07-01T21:08:40.484Z,1.83
2018-07-01T21:11:09.554Z,1.70
2018-07-01T21:13:38.360Z,1.20
2018-07-01T21:16:07.283Z,1.17
2018-07-01T21:18:36.387Z,1.40
2018-07-01T21:21:05.524Z,1.10
2018-07-01T21:23:34.682Z,1.27
2018-07-01T21:26:03.727Z,1.13
2018-07-01T21:28:32.809Z,1.13
2018-07-01T21:31:01.659Z,1.33
2018-07-01T21:33:30.656Z,1.13
2018-07-01T21:35:59.727Z,1.23
2018-07-01T21:38:28.820Z,1.20
2018-07-01T21:40:57.884Z,1.20
2018-07-01T21:43:26.959Z,1.30
2018-07-01T21:45:56.053Z,1.37
2018-07-01T21:48:25.151Z,1.00
2018-07-01T21:50:55.269Z,1.00
2018-07-01T21:53:24.335Z,1.13
2018-07-01T21:55:53.432Z,1.20
2018-07-01T21:58:22.500Z,1.10
2018-07-01T22:00:51.319Z,1.30
2018-07-01T22:03:20.079Z,1.27
2018-07-01T22:05:49.017Z,1.20
2018-07-01T22:08:18.121Z,1.20
2018-07-01T22:11:56.258Z,1.03
2018-07-01T22:14:35.472Z,1.50
2018-07-01T22:17:05.922Z,1.10
2018-07-01T22:19:35.268Z,1.17
2018-07-01T22:22:04.524Z,1.30
2018-07-01T22:24:34.877Z,1.20
2018-07-01T22:27:04.140Z,0.80
2018-07-01T22:29:33.217Z,0.97
2018-07-01T22:32:02.328Z,1.10
2018-07-01T22:34:31.375Z,0.80
2018-07-01T22:37:00.492Z,0.97
2018-07-01T22:39:30.567Z,1.20
2018-07-01T22:42:00.923Z,1.40
2018-07-01T22:44:30.391Z,0.90
2018-07-01T22:46:59.447Z,0.90
2018-07-01T22:49:28.518Z,0.90
2018-07-01T22:51:57.597Z,0.90
2018-07-01T22:54:26.654Z,1.10
2018-07-01T22:56:55.744Z,0.83
2018-07-01T22:59:24.798Z,0.90
2018-07-01T23:03:17.172Z,0.90
2018-07-01T23:05:46.015Z,0.90
2018-07-01T23:08:15.186Z,1.00
2018-07-01T23:10:44.017Z,0.60
2018-07-01T23:13:13.040Z,1.10
2018-07-01T23:15:42.125Z,0.90
2018-07-01T23:18:11.235Z,0.90
2018-07-01T23:20:40.315Z,0.90
2018-07-01T23:23:09.367Z,0.70
2018-07-01T23:25:38.483Z,1.00
2018-07-01T23:28:07.552Z,0.90
2018-07-01T23:30:36.661Z,0.60
2018-07-01T23:33:05.735Z,0.90
2018-07-01T23:35:34.567Z,1.10
2018-07-01T23:38:03.224Z,1.10
2018-07-01T23:40:32.183Z,0.90
2018-07-01T23:43:01.306Z,0.80
2018-07-01T23:45:30.359Z,0.60
2018-07-01T23:47:59.968Z,0.80
2018-07-01T23:50:29.040Z,0.93
2018-07-01T23:52:58.106Z,1.03
2018-07-01T23:55:27.192Z,0.70
2018-07-01T23:57:57.109Z,0.90
